sensor_id;sensor_type;location;lat;lon;timestamp;temperature;humidity
13521;DHT22;6832;51.186;3.236;2024-03-02T00:00:49;28.90;37.00
13521;DHT22;6832;51.186;3.236;2024-03-02T00:03:19;28.90;37.10
13521;DHT22;6832;51.186;3.236;2024-03-02T00:05:49;28.90;37.70
13521;DHT22;6832;51.186;3.236;2024-03-02T00:08:23;28.90;37.00
13521;DHT22;6832;51.186;3.236;2024-03-02T00:10:51;28.80;37.00
13521;DHT22;6832;51.186;3.236;2024-03-02T00:13:20;28.80;37.00
13521;DHT22;6832;51.186;3.236;2024-03-02T00:15:51;28.80;37.00
13521;DHT22;6832;51.186;3.236;2024-03-02T00:18:23;28.90;37.00
13521;DHT22;6832;51.186;3.236;2024-03-02T00:20:56;28.90;37.00
13521;DHT22;6832;51.186;3.236;2024-03-02T00:23:23;28.90;37.00
13521;DHT22;6832;51.186;3.236;2024-03-02T00:25:51;28.90;37.00
13521;DHT22;6832;51.186;3.236;2024-03-02T00:28:21;28.80;37.00
13521;DHT22;6832;51.186;3.236;2024-03-02T00:31:02;28.80;37.00
13521;DHT22;6832;51.186;3.236;2024-03-02T00:33:35;28.80;37.00
13521;DHT22;6832;51.186;3.236;2024-03-02T00:36:03;28.80;36.90
13521;DHT22;6832;51.186;3.236;2024-03-02T00:38:31;28.80;37.00
13521;DHT22;6832;51.186;3.236;2024-03-02T00:40:59;28.80;37.00
13521;DHT22;6832;51.186;3.236;2024-03-02T00:43:42;28.80;37.00
13521;DHT22;6832;51.186;3.236;2024-03-02T00:46:11;28.80;37.00
13521;DHT22;6832;51.186;3.236;2024-03-02T00:48:46;28.80;37.00
13521;DHT22;6832;51.186;3.236;2024-03-02T00:51:14;28.80;37.00
13521;DHT22;6832;51.186;3.236;2024-03-02T00:53:41;28.90;37.00
13521;DHT22;6832;51.186;3.236;2024-03-02T00:56:10;28.80;37.00
13521;DHT22;6832;51.186;3.236;2024-03-02T00:58:37;28.80;37.00
13521;DHT22;6832;51.186;3.236;2024-03-02T01:01:04;28.80;37.00
13521;DHT22;6832;51.186;3.236;2024-03-02T01:03:32;28.80;37.00
13521;DHT22;6832;51.186;3.236;2024-03-02T01:06:02;28.80;37.00
13521;DHT22;6832;51.186;3.236;2024-03-02T01:08:28;28.80;37.00
13521;DHT22;6832;51.186;3.236;2024-03-02T01:10:55;28.80;37.00
13521;DHT22;6832;51.186;3.236;2024-03-02T01:13:23;28.80;37.00
13521;DHT22;6832;51.186;3.236;2024-03-02T01:15:50;28.80;37.00
13521;DHT22;6832;51.186;3.236;2024-03-02T01:18:17;28.80;37.00
13521;DHT22;6832;51.186;3.236;2024-03-02T01:20:43;28.80;37.00
13521;DHT22;6832;51.186;3.236;2024-03-02T01:23:11;28.80;37.00
13521;DHT22;6832;51.186;3.236;2024-03-02T01:25:38;28.80;37.00
13521;DHT22;6832;51.186;3.236;2024-03-02T01:28:05;28.80;37.00
13521;DHT22;6832;51.186;3.236;2024-03-02T01:30:32;28.80;37.00
13521;DHT22;6832;51.186;3.236;2024-03-02T01:32:59;28.80;37.00
13521;DHT22;6832;51.186;3.236;2024-03-02T01:35:27;28.80;37.00
13521;DHT22;6832;51.186;3.236;2024-03-02T01:37:56;28.80;36.90
13521;DHT22;6832;51.186;3.236;2024-03-02T01:40:24;28.80;37.60
13521;DHT22;6832;51.186;3.236;2024-03-02T01:42:52;28.80;36.90
13521;DHT22;6832;51.186;3.236;2024-03-02T01:45:20;28.80;37.00
13521;DHT22;6832;51.186;3.236;2024-03-02T01:47:47;28.80;37.00
13521;DHT22;6832;51.186;3.236;2024-03-02T01:50:14;28.80;36.90
13521;DHT22;6832;51.186;3.236;2024-03-02T01:52:41;28.80;36.90
13521;DHT22;6832;51.186;3.236;2024-03-02T01:55:09;28.80;37.00
13521;DHT22;6832;51.186;3.236;2024-03-02T01:57:38;28.80;37.00
13521;DHT22;6832;51.186;3.236;2024-03-02T02:00:06;28.80;37.00
13521;DHT22;6832;51.186;3.236;2024-03-02T02:02:35;28.80;37.00
13521;DHT22;6832;51.186;3.236;2024-03-02T02:05:02;28.80;36.90
13521;DHT22;6832;51.186;3.236;2024-03-02T02:07:29;28.80;36.90
13521;DHT22;6832;51.186;3.236;2024-03-02T02:09:56;28.80;37.00
13521;DHT22;6832;51.186;3.236;2024-03-02T02:12:23;28.80;37.00
13521;DHT22;6832;51.186;3.236;2024-03-02T02:14:52;28.80;37.00
13521;DHT22;6832;51.186;3.236;2024-03-02T02:17:19;28.80;37.00
13521;DHT22;6832;51.186;3.236;2024-03-02T02:19:46;28.80;37.00
13521;DHT22;6832;51.186;3.236;2024-03-02T02:22:14;28.80;36.90
13521;DHT22;6832;51.186;3.236;2024-03-02T02:24:41;28.80;37.00
13521;DHT22;6832;51.186;3.236;2024-03-02T02:27:09;28.80;37.00
13521;DHT22;6832;51.186;3.236;2024-03-02T02:29:37;28.80;37.00
13521;DHT22;6832;51.186;3.236;2024-03-02T02:32:05;28.80;36.90
13521;DHT22;6832;51.186;3.236;2024-03-02T02:34:31;28.80;36.90
13521;DHT22;6832;51.186;3.236;2024-03-02T02:36:59;28.80;37.00
13521;DHT22;6832;51.186;3.236;2024-03-02T02:39:27;28.80;36.90
13521;DHT22;6832;51.186;3.236;2024-03-02T02:41:54;28.80;37.00
13521;DHT22;6832;51.186;3.236;2024-03-02T02:44:21;28.80;36.90
13521;DHT22;6832;51.186;3.236;2024-03-02T02:46:47;28.80;36.90
13521;DHT22;6832;51.186;3.236;2024-03-02T02:49:14;28.80;37.00
13521;DHT22;6832;51.186;3.236;2024-03-02T02:51:41;28.80;37.00
13521;DHT22;6832;51.186;3.236;2024-03-02T02:54:08;28.80;37.00
13521;DHT22;6832;51.186;3.236;2024-03-02T02:56:36;28.80;37.60
13521;DHT22;6832;51.186;3.236;2024-03-02T02:59:03;28.80;36.90
13521;DHT22;6832;51.186;3.236;2024-03-02T03:01:30;28.80;37.00
13521;DHT22;6832;51.186;3.236;2024-03-02T03:03:57;28.80;37.00
13521;DHT22;6832;51.186;3.236;2024-03-02T03:06:23;28.80;36.90
13521;DHT22;6832;51.186;3.236;2024-03-02T03:08:50;28.80;36.90
13521;DHT22;6832;51.186;3.236;2024-03-02T03:11:17;28.90;37.00
13521;DHT22;6832;51.186;3.236;2024-03-02T03:13:46;28.90;37.00
13521;DHT22;6832;51.186;3.236;2024-03-02T03:16:12;28.90;37.00
13521;DHT22;6832;51.186;3.236;2024-03-02T03:18:39;28.90;37.00
13521;DHT22;6832;51.186;3.236;2024-03-02T03:21:06;28.90;37.00
13521;DHT22;6832;51.186;3.236;2024-03-02T03:23:33;28.90;37.00
13521;DHT22;6832;51.186;3.236;2024-03-02T03:26:00;28.90;37.00
13521;DHT22;6832;51.186;3.236;2024-03-02T03:28:27;28.90;37.00
13521;DHT22;6832;51.186;3.236;2024-03-02T03:30:55;28.90;37.00
13521;DHT22;6832;51.186;3.236;2024-03-02T03:33:22;28.90;37.00
13521;DHT22;6832;51.186;3.236;2024-03-02T03:35:49;28.90;37.00
13521;DHT22;6832;51.186;3.236;2024-03-02T03:38:16;28.90;37.00
13521;DHT22;6832;51.186;3.236;2024-03-02T03:40:43;28.90;37.00
13521;DHT22;6832;51.186;3.236;2024-03-02T03:43:10;28.90;37.00
13521;DHT22;6832;51.186;3.236;2024-03-02T03:45:37;28.90;37.00
13521;DHT22;6832;51.186;3.236;2024-03-02T03:48:06;28.90;37.00
13521;DHT22;6832;51.186;3.236;2024-03-02T03:50:32;28.90;37.00
13521;DHT22;6832;51.186;3.236;2024-03-02T03:52:59;28.90;37.00
13521;DHT22;6832;51.186;3.236;2024-03-02T03:55:26;29.00;37.00
13521;DHT22;6832;51.186;3.236;2024-03-02T03:57:53;29.00;37.00
13521;DHT22;6832;51.186;3.236;2024-03-02T04:00:20;29.00;37.00
13521;DHT22;6832;51.186;3.236;2024-03-02T04:02:47;29.00;37.00
13521;DHT22;6832;51.186;3.236;2024-03-02T04:05:15;29.00;37.00
13521;DHT22;6832;51.186;3.236;2024-03-02T04:07:42;29.00;37.00
13521;DHT22;6832;51.186;3.236;2024-03-02T04:10:10;29.00;37.00
13521;DHT22;6832;51.186;3.236;2024-03-02T04:12:38;29.00;37.00
13521;DHT22;6832;51.186;3.236;2024-03-02T04:15:06;29.00;37.00
13521;DHT22;6832;51.186;3.236;2024-03-02T04:17:33;29.10;36.90
13521;DHT22;6832;51.186;3.236;2024-03-02T04:20:01;29.10;36.90
13521;DHT22;6832;51.186;3.236;2024-03-02T04:22:33;29.10;37.00
13521;DHT22;6832;51.186;3.236;2024-03-02T04:25:01;29.10;37.00
13521;DHT22;6832;51.186;3.236;2024-03-02T04:27:30;29.10;36.90
13521;DHT22;6832;51.186;3.236;2024-03-02T04:29:58;29.10;36.90
13521;DHT22;6832;51.186;3.236;2024-03-02T04:32:26;29.10;36.90
13521;DHT22;6832;51.186;3.236;2024-03-02T04:34:53;29.20;37.00
13521;DHT22;6832;51.186;3.236;2024-03-02T04:37:20;29.20;36.90
13521;DHT22;6832;51.186;3.236;2024-03-02T04:39:48;29.20;36.90
13521;DHT22;6832;51.186;3.236;2024-03-02T04:42:15;29.20;36.90
13521;DHT22;6832;51.186;3.236;2024-03-02T04:44:42;29.20;36.90
13521;DHT22;6832;51.186;3.236;2024-03-02T04:47:09;29.20;36.80
13521;DHT22;6832;51.186;3.236;2024-03-02T04:49:35;29.20;36.80
13521;DHT22;6832;51.186;3.236;2024-03-02T04:52:03;29.20;36.90
13521;DHT22;6832;51.186;3.236;2024-03-02T04:54:30;29.20;36.80
13521;DHT22;6832;51.186;3.236;2024-03-02T04:56:58;29.20;36.80
13521;DHT22;6832;51.186;3.236;2024-03-02T04:59:25;29.20;36.80
13521;DHT22;6832;51.186;3.236;2024-03-02T05:01:52;29.30;36.90
13521;DHT22;6832;51.186;3.236;2024-03-02T05:04:19;29.30;36.90
13521;DHT22;6832;51.186;3.236;2024-03-02T05:06:46;29.30;36.90
13521;DHT22;6832;51.186;3.236;2024-03-02T05:09:18;29.30;36.90
13521;DHT22;6832;51.186;3.236;2024-03-02T05:11:44;29.30;36.90
13521;DHT22;6832;51.186;3.236;2024-03-02T05:14:27;29.30;36.90
13521;DHT22;6832;51.186;3.236;2024-03-02T05:16:54;29.30;36.90
13521;DHT22;6832;51.186;3.236;2024-03-02T05:19:21;29.30;36.90
13521;DHT22;6832;51.186;3.236;2024-03-02T05:21:48;29.30;36.90
13521;DHT22;6832;51.186;3.236;2024-03-02T05:24:15;29.30;36.90
13521;DHT22;6832;51.186;3.236;2024-03-02T05:26:42;29.30;36.80
13521;DHT22;6832;51.186;3.236;2024-03-02T05:29:09;29.30;36.80
13521;DHT22;6832;51.186;3.236;2024-03-02T05:31:37;29.40;36.80
13521;DHT22;6832;51.186;3.236;2024-03-02T05:34:04;29.40;36.80
13521;DHT22;6832;51.186;3.236;2024-03-02T05:36:31;29.40;36.80
13521;DHT22;6832;51.186;3.236;2024-03-02T05:38:58;29.40;36.80
13521;DHT22;6832;51.186;3.236;2024-03-02T05:41:25;29.40;36.80
13521;DHT22;6832;51.186;3.236;2024-03-02T05:43:52;29.40;36.80
13521;DHT22;6832;51.186;3.236;2024-03-02T05:46:19;29.40;36.80
13521;DHT22;6832;51.186;3.236;2024-03-02T05:48:47;29.40;36.80
13521;DHT22;6832;51.186;3.236;2024-03-02T05:51:14;29.50;36.80
13521;DHT22;6832;51.186;3.236;2024-03-02T05:53:41;29.50;36.80
13521;DHT22;6832;51.186;3.236;2024-03-02T05:56:08;29.50;36.80
13521;DHT22;6832;51.186;3.236;2024-03-02T05:58:35;29.50;36.80
13521;DHT22;6832;51.186;3.236;2024-03-02T06:01:15;29.50;36.80
13521;DHT22;6832;51.186;3.236;2024-03-02T06:03:43;29.50;36.80
13521;DHT22;6832;51.186;3.236;2024-03-02T06:06:11;29.50;36.80
13521;DHT22;6832;51.186;3.236;2024-03-02T06:08:38;29.50;36.80
13521;DHT22;6832;51.186;3.236;2024-03-02T06:11:05;29.50;36.80
13521;DHT22;6832;51.186;3.236;2024-03-02T06:13:32;29.50;36.70
13521;DHT22;6832;51.186;3.236;2024-03-02T06:15:59;29.50;36.70
13521;DHT22;6832;51.186;3.236;2024-03-02T06:18:26;29.60;36.70
13521;DHT22;6832;51.186;3.236;2024-03-02T06:20:53;29.50;36.70
13521;DHT22;6832;51.186;3.236;2024-03-02T06:23:22;29.60;36.70
13521;DHT22;6832;51.186;3.236;2024-03-02T06:25:49;29.60;36.70
13521;DHT22;6832;51.186;3.236;2024-03-02T06:28:15;29.60;36.70
13521;DHT22;6832;51.186;3.236;2024-03-02T06:30:45;29.60;36.70
13521;DHT22;6832;51.186;3.236;2024-03-02T06:33:12;29.60;36.60
13521;DHT22;6832;51.186;3.236;2024-03-02T06:35:39;29.60;36.70
13521;DHT22;6832;51.186;3.236;2024-03-02T06:38:06;29.70;36.70
13521;DHT22;6832;51.186;3.236;2024-03-02T06:40:34;29.70;36.60
13521;DHT22;6832;51.186;3.236;2024-03-02T06:43:03;29.70;36.60
13521;DHT22;6832;51.186;3.236;2024-03-02T06:45:30;29.70;36.60
13521;DHT22;6832;51.186;3.236;2024-03-02T06:47:57;29.70;36.60
13521;DHT22;6832;51.186;3.236;2024-03-02T06:50:24;29.80;36.70
13521;DHT22;6832;51.186;3.236;2024-03-02T06:52:50;29.70;36.70
13521;DHT22;6832;51.186;3.236;2024-03-02T06:55:18;29.80;36.70
13521;DHT22;6832;51.186;3.236;2024-03-02T06:57:46;29.80;36.70
13521;DHT22;6832;51.186;3.236;2024-03-02T07:00:14;29.80;36.70
13521;DHT22;6832;51.186;3.236;2024-03-02T07:02:41;29.80;36.70
13521;DHT22;6832;51.186;3.236;2024-03-02T07:05:08;29.80;36.70
13521;DHT22;6832;51.186;3.236;2024-03-02T07:07:35;29.80;36.60
13521;DHT22;6832;51.186;3.236;2024-03-02T07:10:02;29.80;36.60
13521;DHT22;6832;51.186;3.236;2024-03-02T07:12:29;29.80;36.60
13521;DHT22;6832;51.186;3.236;2024-03-02T07:14:58;29.80;36.60
13521;DHT22;6832;51.186;3.236;2024-03-02T07:17:54;29.90;36.60
13521;DHT22;6832;51.186;3.236;2024-03-02T07:20:21;29.80;36.50
13521;DHT22;6832;51.186;3.236;2024-03-02T07:22:48;29.80;37.20
13521;DHT22;6832;51.186;3.236;2024-03-02T07:25:17;29.90;36.60
13521;DHT22;6832;51.186;3.236;2024-03-02T07:27:44;29.90;36.60
13521;DHT22;6832;51.186;3.236;2024-03-02T07:30:15;29.90;36.60
13521;DHT22;6832;51.186;3.236;2024-03-02T07:32:42;29.90;36.50
13521;DHT22;6832;51.186;3.236;2024-03-02T07:35:12;29.90;36.60
13521;DHT22;6832;51.186;3.236;2024-03-02T07:37:39;29.80;36.50
13521;DHT22;6832;51.186;3.236;2024-03-02T07:40:08;29.90;36.50
13521;DHT22;6832;51.186;3.236;2024-03-02T07:42:37;29.90;36.50
13521;DHT22;6832;51.186;3.236;2024-03-02T07:45:05;29.90;36.50
13521;DHT22;6832;51.186;3.236;2024-03-02T07:47:34;29.90;36.60
13521;DHT22;6832;51.186;3.236;2024-03-02T07:50:01;29.90;36.50
13521;DHT22;6832;51.186;3.236;2024-03-02T07:52:31;29.90;36.60
13521;DHT22;6832;51.186;3.236;2024-03-02T07:54:58;29.90;36.50
13521;DHT22;6832;51.186;3.236;2024-03-02T07:57:25;29.90;36.60
13521;DHT22;6832;51.186;3.236;2024-03-02T07:59:52;29.90;36.60
13521;DHT22;6832;51.186;3.236;2024-03-02T08:02:19;29.90;36.60
13521;DHT22;6832;51.186;3.236;2024-03-02T08:04:49;29.90;36.60
13521;DHT22;6832;51.186;3.236;2024-03-02T08:07:16;29.90;36.60
13521;DHT22;6832;51.186;3.236;2024-03-02T08:09:43;29.90;36.60
13521;DHT22;6832;51.186;3.236;2024-03-02T08:12:10;29.90;36.60
13521;DHT22;6832;51.186;3.236;2024-03-02T08:14:37;29.90;36.70
13521;DHT22;6832;51.186;3.236;2024-03-02T08:17:04;30.00;36.70
13521;DHT22;6832;51.186;3.236;2024-03-02T08:19:35;30.00;36.70
13521;DHT22;6832;51.186;3.236;2024-03-02T08:22:04;30.00;36.70
13521;DHT22;6832;51.186;3.236;2024-03-02T08:24:31;30.00;37.40
13521;DHT22;6832;51.186;3.236;2024-03-02T08:26:59;30.00;36.80
13521;DHT22;6832;51.186;3.236;2024-03-02T08:29:26;30.10;36.80
13521;DHT22;6832;51.186;3.236;2024-03-02T08:31:53;30.10;36.80
13521;DHT22;6832;51.186;3.236;2024-03-02T08:34:20;30.20;36.90
13521;DHT22;6832;51.186;3.236;2024-03-02T08:36:47;30.20;36.80
13521;DHT22;6832;51.186;3.236;2024-03-02T08:39:15;30.20;36.80
13521;DHT22;6832;51.186;3.236;2024-03-02T08:41:43;30.20;36.80
13521;DHT22;6832;51.186;3.236;2024-03-02T08:44:10;30.30;36.90
13521;DHT22;6832;51.186;3.236;2024-03-02T08:46:38;30.30;36.80
13521;DHT22;6832;51.186;3.236;2024-03-02T08:49:05;30.40;36.90
13521;DHT22;6832;51.186;3.236;2024-03-02T08:51:32;30.30;36.80
13521;DHT22;6832;51.186;3.236;2024-03-02T08:53:59;30.40;36.80
13521;DHT22;6832;51.186;3.236;2024-03-02T08:56:27;30.40;36.80
13521;DHT22;6832;51.186;3.236;2024-03-02T08:58:54;30.40;36.80
13521;DHT22;6832;51.186;3.236;2024-03-02T09:01:21;30.50;36.90
13521;DHT22;6832;51.186;3.236;2024-03-02T09:03:48;30.50;36.80
13521;DHT22;6832;51.186;3.236;2024-03-02T09:06:15;30.50;36.70
13521;DHT22;6832;51.186;3.236;2024-03-02T09:08:43;30.50;37.40
13521;DHT22;6832;51.186;3.236;2024-03-02T09:11:10;30.50;36.70
13521;DHT22;6832;51.186;3.236;2024-03-02T09:13:39;30.60;36.80
13521;DHT22;6832;51.186;3.236;2024-03-02T09:16:06;30.60;36.80
13521;DHT22;6832;51.186;3.236;2024-03-02T09:18:36;30.60;36.70
13521;DHT22;6832;51.186;3.236;2024-03-02T09:21:04;30.60;36.70
13521;DHT22;6832;51.186;3.236;2024-03-02T09:23:31;30.60;36.70
13521;DHT22;6832;51.186;3.236;2024-03-02T09:25:58;30.60;36.70
13521;DHT22;6832;51.186;3.236;2024-03-02T09:28:25;30.60;36.70
13521;DHT22;6832;51.186;3.236;2024-03-02T09:30:53;30.70;36.70
13521;DHT22;6832;51.186;3.236;2024-03-02T09:33:20;30.70;36.70
13521;DHT22;6832;51.186;3.236;2024-03-02T09:35:47;30.70;36.70
13521;DHT22;6832;51.186;3.236;2024-03-02T09:38:15;30.70;36.70
13521;DHT22;6832;51.186;3.236;2024-03-02T09:40:44;30.70;36.60
13521;DHT22;6832;51.186;3.236;2024-03-02T09:43:11;30.80;36.60
13521;DHT22;6832;51.186;3.236;2024-03-02T09:45:39;30.70;36.50
13521;DHT22;6832;51.186;3.236;2024-03-02T09:48:07;30.70;36.50
13521;DHT22;6832;51.186;3.236;2024-03-02T09:50:34;30.70;36.50
13521;DHT22;6832;51.186;3.236;2024-03-02T09:53:01;30.70;36.50
13521;DHT22;6832;51.186;3.236;2024-03-02T09:55:28;30.70;36.50
13521;DHT22;6832;51.186;3.236;2024-03-02T09:57:55;30.80;36.60
13521;DHT22;6832;51.186;3.236;2024-03-02T10:00:22;30.80;36.60
13521;DHT22;6832;51.186;3.236;2024-03-02T10:02:50;30.80;36.60
13521;DHT22;6832;51.186;3.236;2024-03-02T10:05:27;30.80;36.60
13521;DHT22;6832;51.186;3.236;2024-03-02T10:08:00;30.80;36.40
13521;DHT22;6832;51.186;3.236;2024-03-02T10:10:38;30.80;36.40
13521;DHT22;6832;51.186;3.236;2024-03-02T10:13:08;30.80;36.40
13521;DHT22;6832;51.186;3.236;2024-03-02T10:15:35;30.80;36.50
13521;DHT22;6832;51.186;3.236;2024-03-02T10:18:04;30.80;36.40
13521;DHT22;6832;51.186;3.236;2024-03-02T10:20:32;30.80;36.50
13521;DHT22;6832;51.186;3.236;2024-03-02T10:23:10;30.80;36.50
13521;DHT22;6832;51.186;3.236;2024-03-02T10:25:38;30.80;36.50
13521;DHT22;6832;51.186;3.236;2024-03-02T10:28:05;30.90;36.60
13521;DHT22;6832;51.186;3.236;2024-03-02T10:30:32;30.90;36.60
13521;DHT22;6832;51.186;3.236;2024-03-02T10:33:00;30.90;36.60
13521;DHT22;6832;51.186;3.236;2024-03-02T10:35:28;30.90;36.60
13521;DHT22;6832;51.186;3.236;2024-03-02T10:37:58;30.90;37.20
13521;DHT22;6832;51.186;3.236;2024-03-02T10:40:26;31.00;36.50
13521;DHT22;6832;51.186;3.236;2024-03-02T10:42:54;31.00;36.50
13521;DHT22;6832;51.186;3.236;2024-03-02T10:45:21;31.00;36.50
13521;DHT22;6832;51.186;3.236;2024-03-02T10:47:50;31.10;36.50
13521;DHT22;6832;51.186;3.236;2024-03-02T10:50:17;31.10;36.50
13521;DHT22;6832;51.186;3.236;2024-03-02T10:52:45;31.20;36.50
13521;DHT22;6832;51.186;3.236;2024-03-02T10:55:13;31.20;36.50
13521;DHT22;6832;51.186;3.236;2024-03-02T10:57:50;31.20;36.50
13521;DHT22;6832;51.186;3.236;2024-03-02T11:00:18;31.20;36.50
13521;DHT22;6832;51.186;3.236;2024-03-02T11:02:51;31.20;36.50
13521;DHT22;6832;51.186;3.236;2024-03-02T11:05:27;31.30;36.50
13521;DHT22;6832;51.186;3.236;2024-03-02T11:07:57;31.30;36.40
13521;DHT22;6832;51.186;3.236;2024-03-02T11:10:31;31.30;36.40
13521;DHT22;6832;51.186;3.236;2024-03-02T11:13:02;31.40;36.40
13521;DHT22;6832;51.186;3.236;2024-03-02T11:15:31;31.40;36.40
13521;DHT22;6832;51.186;3.236;2024-03-02T11:18:01;31.40;36.30
13521;DHT22;6832;51.186;3.236;2024-03-02T11:20:31;31.40;36.90
13521;DHT22;6832;51.186;3.236;2024-03-02T11:23:04;31.40;36.20
13521;DHT22;6832;51.186;3.236;2024-03-02T11:25:33;31.40;36.10
13521;DHT22;6832;51.186;3.236;2024-03-02T11:28:01;31.50;36.20
13521;DHT22;6832;51.186;3.236;2024-03-02T11:30:51;31.50;36.30
13521;DHT22;6832;51.186;3.236;2024-03-02T11:33:25;31.50;36.10
13521;DHT22;6832;51.186;3.236;2024-03-02T11:35:56;31.50;36.10
13521;DHT22;6832;51.186;3.236;2024-03-02T11:38:29;31.50;36.20
13521;DHT22;6832;51.186;3.236;2024-03-02T11:40:59;31.50;36.00
13521;DHT22;6832;51.186;3.236;2024-03-02T11:43:28;31.50;36.00
13521;DHT22;6832;51.186;3.236;2024-03-02T11:45:57;31.60;36.00
13521;DHT22;6832;51.186;3.236;2024-03-02T11:48:25;31.50;35.90
13521;DHT22;6832;51.186;3.236;2024-03-02T11:50:52;31.50;35.90
13521;DHT22;6832;51.186;3.236;2024-03-02T11:53:20;31.60;35.90
13521;DHT22;6832;51.186;3.236;2024-03-02T11:55:47;31.60;35.90
13521;DHT22;6832;51.186;3.236;2024-03-02T11:58:17;31.60;35.90
13521;DHT22;6832;51.186;3.236;2024-03-02T12:00:46;31.60;35.90
13521;DHT22;6832;51.186;3.236;2024-03-02T12:03:13;31.50;35.80
13521;DHT22;6832;51.186;3.236;2024-03-02T12:05:41;31.50;35.80
13521;DHT22;6832;51.186;3.236;2024-03-02T12:08:09;31.50;35.80
13521;DHT22;6832;51.186;3.236;2024-03-02T12:10:38;31.50;35.80
13521;DHT22;6832;51.186;3.236;2024-03-02T12:13:06;31.50;35.80
13521;DHT22;6832;51.186;3.236;2024-03-02T12:15:37;31.40;35.80
13521;DHT22;6832;51.186;3.236;2024-03-02T12:18:05;31.40;35.80
13521;DHT22;6832;51.186;3.236;2024-03-02T12:20:33;31.40;35.80
13521;DHT22;6832;51.186;3.236;2024-03-02T12:23:01;31.40;35.80
13521;DHT22;6832;51.186;3.236;2024-03-02T12:25:30;31.40;35.80
13521;DHT22;6832;51.186;3.236;2024-03-02T12:28:00;31.30;35.70
13521;DHT22;6832;51.186;3.236;2024-03-02T12:30:29;31.20;35.60
13521;DHT22;6832;51.186;3.236;2024-03-02T12:32:58;31.30;35.70
13521;DHT22;6832;51.186;3.236;2024-03-02T12:35:25;31.20;35.60
13521;DHT22;6832;51.186;3.236;2024-03-02T12:37:53;31.20;35.60
13521;DHT22;6832;51.186;3.236;2024-03-02T12:40:21;31.20;35.60
13521;DHT22;6832;51.186;3.236;2024-03-02T12:42:48;31.10;35.60
13521;DHT22;6832;51.186;3.236;2024-03-02T12:45:16;31.10;35.60
13521;DHT22;6832;51.186;3.236;2024-03-02T12:47:49;31.10;35.60
13521;DHT22;6832;51.186;3.236;2024-03-02T12:50:18;31.00;35.50
13521;DHT22;6832;51.186;3.236;2024-03-02T12:52:51;31.00;35.50
13521;DHT22;6832;51.186;3.236;2024-03-02T12:55:20;30.90;35.50
13521;DHT22;6832;51.186;3.236;2024-03-02T12:57:49;30.90;35.40
13521;DHT22;6832;51.186;3.236;2024-03-02T13:00:18;30.90;35.40
13521;DHT22;6832;51.186;3.236;2024-03-02T13:02:46;30.80;35.40
13521;DHT22;6832;51.186;3.236;2024-03-02T13:05:14;30.80;35.40
13521;DHT22;6832;51.186;3.236;2024-03-02T13:07:42;30.80;35.40
13521;DHT22;6832;51.186;3.236;2024-03-02T13:10:10;30.70;35.30
13521;DHT22;6832;51.186;3.236;2024-03-02T13:12:38;30.70;35.30
13521;DHT22;6832;51.186;3.236;2024-03-02T13:15:06;30.70;35.30
13521;DHT22;6832;51.186;3.236;2024-03-02T13:17:34;30.60;35.30
13521;DHT22;6832;51.186;3.236;2024-03-02T13:20:02;30.60;35.30
13521;DHT22;6832;51.186;3.236;2024-03-02T13:22:30;30.60;35.30
13521;DHT22;6832;51.186;3.236;2024-03-02T13:24:58;30.50;35.20
13521;DHT22;6832;51.186;3.236;2024-03-02T13:27:25;30.50;35.30
13521;DHT22;6832;51.186;3.236;2024-03-02T13:29:52;30.50;35.30
13521;DHT22;6832;51.186;3.236;2024-03-02T13:32:19;30.50;35.30
13521;DHT22;6832;51.186;3.236;2024-03-02T13:34:49;30.40;35.30
13521;DHT22;6832;51.186;3.236;2024-03-02T13:37:16;30.40;35.30
13521;DHT22;6832;51.186;3.236;2024-03-02T13:39:43;30.30;35.20
13521;DHT22;6832;51.186;3.236;2024-03-02T13:42:12;30.30;35.20
13521;DHT22;6832;51.186;3.236;2024-03-02T13:44:40;30.30;35.30
13521;DHT22;6832;51.186;3.236;2024-03-02T13:47:08;30.30;35.30
13521;DHT22;6832;51.186;3.236;2024-03-02T13:49:34;30.30;35.70
13521;DHT22;6832;51.186;3.236;2024-03-02T13:52:03;30.20;35.30
13521;DHT22;6832;51.186;3.236;2024-03-02T13:54:39;30.20;35.40
13521;DHT22;6832;51.186;3.236;2024-03-02T13:57:07;30.20;35.40
13521;DHT22;6832;51.186;3.236;2024-03-02T13:59:36;30.20;35.40
13521;DHT22;6832;51.186;3.236;2024-03-02T14:02:03;30.20;35.40
13521;DHT22;6832;51.186;3.236;2024-03-02T14:04:31;30.10;35.40
13521;DHT22;6832;51.186;3.236;2024-03-02T14:06:58;30.10;35.50
13521;DHT22;6832;51.186;3.236;2024-03-02T14:09:26;30.10;35.50
13521;DHT22;6832;51.186;3.236;2024-03-02T14:11:53;30.10;35.50
13521;DHT22;6832;51.186;3.236;2024-03-02T14:14:20;30.00;35.40
13521;DHT22;6832;51.186;3.236;2024-03-02T14:16:50;30.00;35.50
13521;DHT22;6832;51.186;3.236;2024-03-02T14:19:16;30.00;35.40
13521;DHT22;6832;51.186;3.236;2024-03-02T14:21:43;30.00;35.40
13521;DHT22;6832;51.186;3.236;2024-03-02T14:24:11;30.00;35.50
13521;DHT22;6832;51.186;3.236;2024-03-02T14:26:38;30.00;35.50
13521;DHT22;6832;51.186;3.236;2024-03-02T14:29:05;30.00;35.50
13521;DHT22;6832;51.186;3.236;2024-03-02T14:31:32;30.00;35.50
13521;DHT22;6832;51.186;3.236;2024-03-02T14:34:00;30.00;35.50
13521;DHT22;6832;51.186;3.236;2024-03-02T14:36:27;29.90;35.40
13521;DHT22;6832;51.186;3.236;2024-03-02T14:38:55;29.90;35.40
13521;DHT22;6832;51.186;3.236;2024-03-02T14:41:22;29.90;35.40
13521;DHT22;6832;51.186;3.236;2024-03-02T14:43:49;29.80;35.40
13521;DHT22;6832;51.186;3.236;2024-03-02T14:46:17;29.80;35.40
13521;DHT22;6832;51.186;3.236;2024-03-02T14:48:44;29.80;35.40
13521;DHT22;6832;51.186;3.236;2024-03-02T14:51:13;29.80;35.40
13521;DHT22;6832;51.186;3.236;2024-03-02T14:53:40;29.80;35.40
13521;DHT22;6832;51.186;3.236;2024-03-02T14:56:07;29.80;35.50
13521;DHT22;6832;51.186;3.236;2024-03-02T14:58:34;29.70;35.40
13521;DHT22;6832;51.186;3.236;2024-03-02T15:01:03;29.70;35.40
13521;DHT22;6832;51.186;3.236;2024-03-02T15:03:30;29.70;35.40
13521;DHT22;6832;51.186;3.236;2024-03-02T15:05:57;29.60;35.40
13521;DHT22;6832;51.186;3.236;2024-03-02T15:08:25;29.60;35.50
13521;DHT22;6832;51.186;3.236;2024-03-02T15:10:52;29.60;35.50
13521;DHT22;6832;51.186;3.236;2024-03-02T15:13:21;29.60;35.50
13521;DHT22;6832;51.186;3.236;2024-03-02T15:15:48;29.60;35.50
13521;DHT22;6832;51.186;3.236;2024-03-02T15:18:16;29.60;35.50
13521;DHT22;6832;51.186;3.236;2024-03-02T15:20:43;29.60;35.60
13521;DHT22;6832;51.186;3.236;2024-03-02T15:23:09;29.60;35.60
13521;DHT22;6832;51.186;3.236;2024-03-02T15:25:38;29.50;35.60
13521;DHT22;6832;51.186;3.236;2024-03-02T15:28:05;29.50;35.60
13521;DHT22;6832;51.186;3.236;2024-03-02T15:30:32;29.50;35.60
13521;DHT22;6832;51.186;3.236;2024-03-02T15:32:59;29.50;35.60
13521;DHT22;6832;51.186;3.236;2024-03-02T15:35:26;29.50;35.60
13521;DHT22;6832;51.186;3.236;2024-03-02T15:37:53;29.50;35.60
13521;DHT22;6832;51.186;3.236;2024-03-02T15:40:20;29.50;35.60
13521;DHT22;6832;51.186;3.236;2024-03-02T15:42:49;29.50;35.60
13521;DHT22;6832;51.186;3.236;2024-03-02T15:45:16;29.50;35.60
13521;DHT22;6832;51.186;3.236;2024-03-02T15:47:43;29.50;35.60
13521;DHT22;6832;51.186;3.236;2024-03-02T15:50:10;29.50;36.30